Time;durP1;ratioP1;P1;durP2;ratioP2;P2;SDS_P1;SDS_P2;PMS_P1;PMS_P2;Temp;Humidity;BMP_temperature;BMP_pressure;BME280_temperature;BME280_humidity;BME280_pressure;Samples;Min_cycle;Max_cycle;Signal;HPM_P1;HPM_P2
2021/08/17 00:00:13;;;;;;;19.95;11.73;;;;;;;23.15;60.82;98582.31;1870671;76;22568;-66
2021/08/17 00:02:47;;;;;;;18.73;12.07;;;;;;;23.12;60.97;98583.31;1889998;76;22549;-57
2021/08/17 00:05:24;;;;;;;19.80;12.70;;;;;;;23.09;61.11;98572.08;1854600;76;28180;-62
2021/08/17 00:08:01;;;;;;;21.90;12.18;;;;;;;23.10;61.14;98579.92;1870691;76;22516;-63
2021/08/17 00:10:55;;;;;;;20.17;12.60;;;;;;;23.08;61.27;98576.50;1889975;76;22124;-62
2021/08/17 00:13:49;;;;;;;16.77;11.22;;;;;;;23.08;61.39;98579.12;1889925;76;22132;-65
2021/08/17 00:16:25;;;;;;;19.65;12.18;;;;;;;23.06;61.49;98580.12;1870686;76;22117;-70
2021/08/17 00:18:59;;;;;;;16.85;11.40;;;;;;;23.03;61.65;98578.48;1870777;76;22105;-65
2021/08/17 00:21:54;;;;;;;18.23;12.47;;;;;;;23.03;61.84;98580.27;1889934;76;22108;-67
2021/08/17 00:24:29;;;;;;;19.77;12.45;;;;;;;23.00;61.80;98575.13;1889967;76;22131;-65
2021/08/17 00:27:04;;;;;;;20.82;12.98;;;;;;;22.98;61.98;98571.27;1870687;76;22145;-67
2021/08/17 00:29:40;;;;;;;19.07;12.43;;;;;;;22.99;62.20;98583.95;1870436;76;22167;-60
2021/08/17 00:32:16;;;;;;;18.45;12.45;;;;;;;22.99;62.20;98577.38;1870596;76;22563;-59
2021/08/17 00:34:52;;;;;;;17.85;11.18;;;;;;;22.97;62.08;98576.12;1889967;76;22108;-62
2021/08/17 00:37:29;;;;;;;17.98;12.07;;;;;;;22.96;62.32;98572.61;1890071;76;22135;-65
2021/08/17 00:40:23;;;;;;;21.42;12.30;;;;;;;22.95;62.36;98564.33;1890065;76;22144;-59
2021/08/17 00:43:17;;;;;;;19.50;12.95;;;;;;;22.94;62.65;98580.18;1870641;76;22137;-60
2021/08/17 00:45:51;;;;;;;20.15;12.60;;;;;;;22.88;62.80;98569.95;1889994;76;22124;-62
2021/08/17 00:48:27;;;;;;;20.75;14.30;;;;;;;22.84;63.00;98576.26;1854721;76;27925;-62
2021/08/17 00:51:05;;;;;;;23.95;13.60;;;;;;;22.86;62.97;98570.47;1889949;76;22168;-63
2021/08/17 00:53:59;;;;;;;23.30;14.13;;;;;;;22.84;63.04;98567.05;1854730;76;27931;-63
2021/08/17 00:56:37;;;;;;;21.85;13.48;;;;;;;22.86;62.97;98566.52;1854609;76;27949;-62
2021/08/17 00:59:12;;;;;;;17.85;13.48;;;;;;;22.88;63.04;98569.95;1870696;76;22117;-62
2021/08/17 01:01:46;;;;;;;21.55;12.50;;;;;;;22.84;63.12;98578.89;1870671;76;22531;-66
2021/08/17 01:04:22;;;;;;;21.25;12.93;;;;;;;22.81;63.17;98578.56;1870613;76;22596;-66
2021/08/17 01:06:57;;;;;;;17.67;12.88;;;;;;;22.79;63.33;98566.41;1890028;76;22554;-64
2021/08/17 01:09:32;;;;;;;22.42;14.07;;;;;;;22.75;63.44;98567.86;1870706;76;20098;-64
2021/08/17 01:12:10;;;;;;;21.73;13.48;;;;;;;22.74;63.57;98570.12;1870458;76;22157;-66
2021/08/17 01:14:51;;;;;;;19.15;13.90;;;;;;;22.74;63.50;98579.33;1869831;76;22182;-67
2021/08/17 01:17:26;;;;;;;20.52;14.15;;;;;;;22.74;63.56;98570.55;1854763;76;28099;-60
2021/08/17 01:20:03;;;;;;;22.05;14.18;;;;;;;22.78;63.48;98577.86;1873984;76;38225;-57
2021/08/17 01:22:42;;;;;;;19.32;13.58;;;;;;;22.81;63.47;98579.88;1889988;76;20446;-62
2021/08/17 01:25:43;;;;;;;20.32;13.18;;;;;;;22.79;63.51;98579.09;1890088;76;22188;-58
2021/08/17 01:28:18;;;;;;;18.92;12.82;;;;;;;22.75;63.59;98581.02;1870699;76;22121;-63
2021/08/17 01:31:02;;;;;;;20.15;13.30;;;;;;;22.73;63.75;98580.23;1870577;76;22136;-65
2021/08/17 01:33:37;;;;;;;20.43;12.45;;;;;;;22.69;63.80;98585.22;1889943;76;22556;-60
2021/08/17 01:36:33;;;;;;;22.52;13.35;;;;;;;22.66;64.06;98568.73;1870458;76;22584;-63
2021/08/17 01:39:08;;;;;;;19.12;13.35;;;;;;;22.64;63.90;98574.05;1870605;76;22137;-64
2021/08/17 01:42:04;;;;;;;17.95;13.15;;;;;;;22.65;63.89;98573.14;1870692;76;22108;-60
2021/08/17 01:44:38;;;;;;;18.45;13.75;;;;;;;22.65;63.98;98578.41;1873900;76;27946;-62
2021/08/17 01:47:14;;;;;;;23.57;13.03;;;;;;;22.66;63.96;98581.42;1870435;76;22175;-59
2021/08/17 01:49:50;;;;;;;21.55;11.95;;;;;;;22.65;63.96;98568.35;1889972;76;22108;-60
2021/08/17 01:52:26;;;;;;;20.97;12.50;;;;;;;22.65;63.95;98568.35;1870437;76;22592;-62
2021/08/17 01:55:04;;;;;;;20.82;12.43;;;;;;;22.65;63.98;98577.09;1889995;76;22575;-64
2021/08/17 01:57:39;;;;;;;17.85;12.30;;;;;;;22.62;63.99;98573.29;1870662;76;22211;-65
2021/08/17 02:00:34;;;;;;;20.72;13.88;;;;;;;22.59;64.23;98574.71;1889988;76;22144;-64
2021/08/17 02:03:08;;;;;;;22.42;13.58;;;;;;;22.55;64.28;98571.84;1870663;76;22141;-66
2021/08/17 02:05:50;;;;;;;17.95;12.35;;;;;;;22.52;64.51;98574.15;1869761;76;22554;-64
2021/08/17 02:08:44;;;;;;;19.65;13.00;;;;;;;22.48;64.60;98562.05;1890024;76;22116;-65
2021/08/17 02:11:19;;;;;;;21.70;13.68;;;;;;;22.47;64.57;98561.66;1890011;76;20343;-64
2021/08/17 02:14:13;;;;;;;17.45;12.58;;;;;;;22.48;64.66;98557.25;1870541;76;22144;-61
2021/08/17 02:16:48;;;;;;;23.90;12.93;;;;;;;22.49;64.56;98551.06;1870697;76;22141;-65
2021/08/17 02:19:25;;;;;;;22.32;12.55;;;;;;;22.53;64.32;98552.64;1870554;76;22148;-62
2021/08/17 02:22:01;;;;;;;21.07;12.88;;;;;;;22.53;64.32;98553.95;1870485;76;22580;-65
2021/08/17 02:24:56;;;;;;;23.35;13.30;;;;;;;22.50;64.45;98548.84;1870436;76;22161;-59
2021/08/17 02:27:35;;;;;;;19.82;12.68;;;;;;;22.50;64.53;98552.31;1870445;76;22152;-63
2021/08/17 02:30:11;;;;;;;23.05;13.32;;;;;;;22.46;64.66;98555.99;1870644;76;22555;-62
2021/08/17 02:33:11;;;;;;;20.32;12.90;;;;;;;22.43;64.80;98551.34;1869731;76;22125;-65
2021/08/17 02:35:46;;;;;;;24.00;13.95;;;;;;;22.41;64.94;98548.77;1870605;76;22552;-62
2021/08/17 02:38:21;;;;;;;23.85;13.93;;;;;;;22.38;64.85;98534.91;1870691;76;22100;-68
2021/08/17 02:40:56;;;;;;;22.70;14.45;;;;;;;22.41;65.03;98546.61;1870610;76;22153;-64
2021/08/17 02:43:50;;;;;;;24.20;14.00;;;;;;;22.32;64.95;98543.47;1870532;76;22563;-62
2021/08/17 02:46:25;;;;;;;22.98;14.60;;;;;;;22.33;65.10;98541.22;1835104;77;22572;-63
2021/08/17 02:49:00;;;;;;;17.85;13.62;;;;;;;22.27;65.50;98545.44;1870653;76;22535;-60
2021/08/17 02:51:34;;;;;;;22.10;14.83;;;;;;;22.20;65.71;98545.30;1870688;76;22524;-61
2021/08/17 02:54:09;;;;;;;22.10;14.15;;;;;;;22.14;65.82;98533.72;1870835;76;22157;-64
2021/08/17 02:57:07;;;;;;;23.10;13.75;;;;;;;22.13;65.95;98549.55;1870490;76;22176;-61
2021/08/17 02:59:41;;;;;;;22.93;14.78;;;;;;;22.08;65.90;98536.16;1889965;76;22136;-65
2021/08/17 03:02:35;;;;;;;25.35;14.95;;;;;;;22.08;66.10;98542.73;1889933;76;22116;-62
2021/08/17 03:05:11;;;;;;;23.12;15.15;;;;;;;22.04;66.20;98534.57;1870815;76;22109;-62
2021/08/17 03:08:04;;;;;;;22.65;14.25;;;;;;;22.02;66.25;98540.81;1870629;76;22160;-67
2021/08/17 03:10:40;;;;;;;21.57;14.23;;;;;;;21.99;66.42;98550.14;1870723;76;22112;-67
2021/08/17 03:13:33;;;;;;;24.23;15.98;;;;;;;21.96;66.48;98547.65;1870640;76;22141;-63
2021/08/17 03:16:28;;;;;;;23.12;15.80;;;;;;;21.93;66.57;98543.81;1889931;76;22163;-65
2021/08/17 03:19:22;;;;;;;25.23;15.43;;;;;;;21.94;66.37;98549.48;1870378;76;22152;-64
2021/08/17 03:21:58;;;;;;;27.10;15.48;;;;;;;21.93;66.53;98521.48;1870635;76;22132;-62
2021/08/17 03:24:33;;;;;;;22.65;15.20;;;;;;;21.94;66.28;98536.34;1873922;76;27916;-61
2021/08/17 03:27:14;;;;;;;26.17;14.95;;;;;;;22.03;66.23;98542.50;1869858;76;22133;-61
2021/08/17 03:29:49;;;;;;;22.73;14.25;;;;;;;22.05;65.90;98540.67;1889942;76;22155;-64
2021/08/17 03:32:24;;;;;;;21.23;14.65;;;;;;;22.06;65.93;98541.09;1870684;76;22539;-65
2021/08/17 03:34:59;;;;;;;22.20;15.45;;;;;;;22.05;65.85;98532.79;1854810;76;27911;-62
2021/08/17 03:37:53;;;;;;;26.30;14.83;;;;;;;22.12;65.58;98527.67;1870728;76;22112;-65
2021/08/17 03:40:29;;;;;;;25.97;15.50;;;;;;;22.13;65.32;98530.68;1854651;76;27933;-59
2021/08/17 03:43:25;;;;;;;30.43;14.75;;;;;;;22.20;64.84;98533.48;1870800;76;22104;-60
2021/08/17 03:46:00;;;;;;;23.40;13.83;;;;;;;22.27;64.95;98524.41;1870577;76;22156;-64
2021/08/17 03:48:35;;;;;;;23.85;13.88;;;;;;;22.30;64.49;98536.09;1870637;76;22128;-62
2021/08/17 03:51:10;;;;;;;21.37;13.55;;;;;;;22.35;64.28;98540.31;1889963;76;22135;-65
2021/08/17 03:53:45;;;;;;;26.77;13.30;;;;;;;22.39;64.25;98532.66;1889991;76;22527;-58
2021/08/17 03:56:20;;;;;;;21.57;13.43;;;;;;;22.41;63.99;98530.36;1870765;76;22105;-62
2021/08/17 03:58:55;;;;;;;22.42;13.53;;;;;;;22.47;63.87;98537.15;1889944;76;22600;-65
2021/08/17 04:01:31;;;;;;;22.05;14.23;;;;;;;22.50;63.86;98542.27;1870401;76;22607;-63
2021/08/17 04:04:07;;;;;;;21.95;14.30;;;;;;;22.52;63.86;98547.00;1854616;76;27949;-65
2021/08/17 04:06:41;;;;;;;22.82;13.65;;;;;;;22.57;63.60;98538.45;1870640;76;22536;-60
2021/08/17 04:09:16;;;;;;;25.30;14.93;;;;;;;22.62;63.11;98540.84;1870647;76;22542;-62
2021/08/17 04:11:51;;;;;;;26.27;13.10;;;;;;;22.66;63.18;98537.16;1870643;76;22175;-60
2021/08/17 04:14:27;;;;;;;19.62;12.93;;;;;;;22.68;63.16;98533.55;1889946;76;22562;-64
2021/08/17 04:17:03;;;;;;;19.65;12.90;;;;;;;22.72;62.96;98536.91;1889916;76;22143;-61
2021/08/17 04:19:39;;;;;;;24.67;13.08;;;;;;;22.76;62.78;98535.36;1870613;76;22109;-63
2021/08/17 04:22:33;;;;;;;19.27;13.30;;;;;;;22.82;62.60;98531.62;1870613;76;22149;-66
2021/08/17 04:25:10;;;;;;;18.82;12.58;;;;;;;22.86;62.68;98533.63;1870668;76;22109;-60
2021/08/17 04:27:44;;;;;;;18.17;12.35;;;;;;;22.91;62.59;98538.22;1889980;76;22125;-65
2021/08/17 04:30:39;;;;;;;25.10;12.68;;;;;;;22.95;62.54;98537.17;1889941;76;22112;-64
2021/08/17 04:33:15;;;;;;;21.87;13.30;;;;;;;23.00;62.46;98532.58;1854611;76;28127;-62
2021/08/17 04:35:49;;;;;;;22.32;12.98;;;;;;;23.07;61.81;98537.92;1870671;76;22171;-63
2021/08/17 04:38:24;;;;;;;21.62;12.78;;;;;;;23.10;61.99;98544.38;1870670;76;22136;-63
2021/08/17 04:40:59;;;;;;;25.05;12.85;;;;;;;23.15;61.78;98551.60;1870648;76;22140;-62
2021/08/17 04:43:33;;;;;;;21.07;12.82;;;;;;;23.22;61.42;98555.25;1889955;76;22116;-62
2021/08/17 04:46:15;;;;;;;18.70;12.35;;;;;;;23.28;61.19;98557.58;1889870;76;22328;-64
2021/08/17 04:48:50;;;;;;;20.68;12.85;;;;;;;23.32;61.27;98553.89;1889978;76;22543;-66
2021/08/17 04:51:45;;;;;;;20.60;11.83;;;;;;;23.42;60.92;98552.52;1870573;76;22598;-62
2021/08/17 04:54:20;;;;;;;20.50;13.75;;;;;;;23.54;60.56;98551.09;1870685;76;22105;-64
2021/08/17 04:56:55;;;;;;;20.32;11.70;;;;;;;23.64;60.28;98548.86;1870636;76;22181;-65
2021/08/17 04:59:30;;;;;;;21.33;12.80;;;;;;;23.70;59.90;98552.03;1854581;76;27934;-66
2021/08/17 05:02:06;;;;;;;19.25;12.23;;;;;;;23.80;59.98;98561.69;1870420;76;22143;-65
2021/08/17 05:04:42;;;;;;;26.00;13.38;;;;;;;23.90;59.89;98568.21;1889971;76;22549;-64
2021/08/17 05:07:22;;;;;;;19.07;11.30;;;;;;;23.97;59.36;98568.77;1869818;76;22108;-68
2021/08/17 05:09:59;;;;;;;18.12;11.68;;;;;;;24.04;59.43;98563.11;1870409;76;22278;-65
2021/08/17 05:12:35;;;;;;;16.85;10.98;;;;;;;24.10;59.12;98569.85;1870651;76;22109;-61
2021/08/17 05:15:12;;;;;;;20.77;11.95;;;;;;;24.18;59.19;98558.92;1889904;76;22140;-65
2021/08/17 05:17:46;;;;;;;23.38;10.93;;;;;;;24.30;58.52;98570.16;1870675;76;22180;-61
2021/08/17 05:20:21;;;;;;;21.05;11.40;;;;;;;24.55;57.96;98579.45;1870649;76;22109;-60
2021/08/17 05:22:56;;;;;;;17.45;11.25;;;;;;;24.86;57.04;98585.30;1889973;76;22527;-66
2021/08/17 05:25:31;;;;;;;20.30;11.50;;;;;;;25.52;55.56;98576.44;1854693;76;27945;-64
2021/08/17 05:28:06;;;;;;;18.67;11.43;;;;;;;26.58;52.67;98582.19;1870654;76;22113;-66
2021/08/17 05:30:42;;;;;;;23.35;10.93;;;;;;;27.48;50.44;98585.84;1889933;76;22123;-62
2021/08/17 05:33:36;;;;;;;18.92;11.97;;;;;;;28.16;48.72;98574.78;1870631;76;22133;-64
2021/08/17 05:36:16;;;;;;;18.23;11.63;;;;;;;28.49;47.61;98568.16;1869826;76;22555;-66
2021/08/17 05:38:52;;;;;;;21.42;9.85;;;;;;;28.75;46.34;98574.31;1889953;76;23633;-65
2021/08/17 05:41:28;;;;;;;21.50;10.88;;;;;;;28.83;46.04;98583.10;1889971;76;22152;-68
2021/08/17 05:44:03;;;;;;;15.50;10.03;;;;;;;28.92;45.69;98569.99;1889949;76;22104;-60
2021/08/17 05:46:57;;;;;;;16.70;10.45;;;;;;;29.47;44.89;98578.52;1870531;76;22558;-61
2021/08/17 05:49:32;;;;;;;20.72;11.78;;;;;;;30.01;43.63;98576.73;1870703;76;22083;-69
2021/08/17 05:52:10;;;;;;;17.57;9.88;;;;;;;30.32;42.64;98582.92;1889947;76;22073;-64
2021/08/17 05:54:45;;;;;;;17.85;10.20;;;;;;;30.49;42.62;98582.47;1870488;76;22083;-60
2021/08/17 05:57:21;;;;;;;18.25;9.93;;;;;;;31.40;41.08;98599.36;1870599;76;22055;-67
2021/08/17 05:59:56;;;;;;;12.73;8.98;;;;;;;31.78;39.71;98587.77;1889946;76;22690;-64
2021/08/17 06:02:50;;;;;;;16.50;9.28;;;;;;;32.17;39.25;98602.79;1870656;76;22083;-68
2021/08/17 06:05:26;;;;;;;17.67;9.45;;;;;;;32.55;38.67;98604.06;1870726;76;22655;-62
2021/08/17 06:08:00;;;;;;;16.48;9.45;;;;;;;32.46;38.79;98603.47;1870679;76;20208;-65
2021/08/17 06:10:35;;;;;;;16.93;10.10;;;;;;;33.13;37.70;98602.67;1870774;76;22441;-68
2021/08/17 06:13:10;;;;;;;13.48;8.70;;;;;;;33.64;36.53;98608.44;1889903;76;22136;-70
2021/08/17 06:15:45;;;;;;;13.48;8.73;;;;;;;33.40;36.53;98590.02;1870668;76;22205;-63
2021/08/17 06:18:40;;;;;;;14.30;8.68;;;;;;;33.53;36.43;98587.09;1870650;76;22128;-62
2021/08/17 06:21:15;;;;;;;14.05;8.78;;;;;;;33.49;35.91;98600.75;1854861;76;29827;-68
2021/08/17 06:24:10;;;;;;;14.03;8.38;;;;;;;33.53;36.57;98599.14;1870619;76;22267;-68
2021/08/17 06:27:04;;;;;;;15.28;8.73;;;;;;;33.71;35.61;98598.84;1870527;76;22079;-61
2021/08/17 06:29:58;;;;;;;15.03;9.08;;;;;;;33.13;36.80;98591.98;1870436;76;22162;-65
2021/08/17 06:32:34;;;;;;;11.75;8.13;;;;;;;33.04;36.79;98603.84;1870606;76;22051;-63
2021/08/17 06:35:29;;;;;;;14.87;9.23;;;;;;;32.85;37.51;98600.58;1854686;76;49021;-63
2021/08/17 06:38:05;;;;;;;19.32;8.95;;;;;;;33.22;36.87;98593.35;1870543;76;20097;-64
2021/08/17 06:40:39;;;;;;;16.42;8.55;;;;;;;33.31;36.83;98593.54;1870636;76;22212;-62
2021/08/17 06:43:34;;;;;;;23.52;8.58;;;;;;;33.46;36.51;98597.52;1870529;76;22075;-59
2021/08/17 06:46:09;;;;;;;16.62;8.20;;;;;;;33.34;36.37;98595.44;1870753;76;22054;-70
2021/08/17 06:48:44;;;;;;;20.30;8.18;;;;;;;33.56;36.11;98598.89;1870635;76;22059;-68
2021/08/17 06:51:19;;;;;;;14.73;8.28;;;;;;;33.83;35.14;98604.42;1870675;76;22050;-65
2021/08/17 06:54:14;;;;;;;19.30;8.58;;;;;;;33.50;36.12;98593.56;1889874;76;22516;-63
2021/08/17 06:56:48;;;;;;;16.07;8.48;;;;;;;33.38;35.96;98592.86;1870650;76;22042;-64
2021/08/17 06:59:23;;;;;;;16.30;8.85;;;;;;;33.23;36.38;98603.58;1870643;76;22074;-61
2021/08/17 07:01:57;;;;;;;17.52;9.08;;;;;;;32.79;36.90;98601.59;1870730;76;22046;-64
2021/08/17 07:04:32;;;;;;;20.62;8.38;;;;;;;32.50;37.51;98574.23;1870646;76;22303;-65
2021/08/17 07:07:07;;;;;;;15.70;8.20;;;;;;;32.64;37.18;98590.39;1889929;76;22070;-65
2021/08/17 07:09:42;;;;;;;17.70;8.68;;;;;;;33.12;35.48;98570.24;1889928;76;22477;-66
2021/08/17 07:12:24;;;;;;;17.87;8.35;;;;;;;33.33;36.05;98573.70;1890071;76;22121;-64
2021/08/17 07:14:59;;;;;;;12.88;7.35;;;;;;;33.56;35.28;98560.09;1870625;76;22217;-65
2021/08/17 07:17:36;;;;;;;20.12;7.78;;;;;;;33.54;34.90;98575.42;1889925;76;22322;-67
2021/08/17 07:20:12;;;;;;;15.25;7.80;;;;;;;33.64;35.26;98591.03;1870638;76;22083;-63
2021/08/17 07:23:05;;;;;;;16.85;7.95;;;;;;;33.88;34.98;98586.11;1870560;76;22083;-66
2021/08/17 07:25:47;;;;;;;13.58;7.55;;;;;;;34.41;33.57;98569.26;1869694;76;22078;-64
2021/08/17 07:28:21;;;;;;;13.05;7.00;;;;;;;34.61;33.12;98574.11;1889952;76;22144;-64
2021/08/17 07:30:56;;;;;;;15.32;6.55;;;;;;;34.81;32.11;98593.16;1870767;76;22051;-67
2021/08/17 07:33:32;;;;;;;13.90;7.70;;;;;;;34.71;32.38;98573.08;1870423;76;22082;-66
2021/08/17 07:36:07;;;;;;;14.47;6.80;;;;;;;34.72;32.59;98602.91;1889931;76;22050;-60
2021/08/17 07:38:44;;;;;;;13.45;6.55;;;;;;;34.90;32.46;98602.15;1870755;76;22047;-62
2021/08/17 07:41:22;;;;;;;18.90;7.40;;;;;;;35.23;31.40;98597.58;1870638;76;22050;-64
2021/08/17 07:43:57;;;;;;;15.38;6.78;;;;;;;35.59;31.30;98588.28;1870612;76;22121;-69
2021/08/17 07:46:32;;;;;;;9.78;6.47;;;;;;;35.59;30.75;98590.97;1870652;76;22078;-63
2021/08/17 07:49:25;;;;;;;12.25;6.12;;;;;;;35.70;31.46;98615.91;1870615;76;22228;-61
2021/08/17 07:52:00;;;;;;;10.78;5.50;;;;;;;36.41;29.57;98601.16;1870634;76;22075;-66
2021/08/17 07:54:54;;;;;;;12.88;6.10;;;;;;;37.10;28.75;98606.67;1889911;76;22062;-64
2021/08/17 07:57:29;;;;;;;10.70;5.80;;;;;;;37.26;28.51;98595.95;1889935;76;22042;-66
2021/08/17 08:00:23;;;;;;;14.18;5.97;;;;;;;37.76;27.88;98609.94;1870578;76;22062;-65
2021/08/17 08:02:58;;;;;;;14.30;5.90;;;;;;;38.00;27.34;98602.92;1870653;76;22047;-63
2021/08/17 08:05:33;;;;;;;11.57;5.83;;;;;;;37.13;27.94;98568.67;1870655;76;22043;-63
2021/08/17 08:08:26;;;;;;;11.45;5.40;;;;;;;36.13;29.52;98593.72;1870559;76;22133;-64
2021/08/17 08:11:03;;;;;;;12.28;6.40;;;;;;;36.23;29.23;98626.72;1870598;76;22462;-66
2021/08/17 08:13:38;;;;;;;12.43;5.92;;;;;;;35.66;30.27;98601.95;1870537;76;22055;-63
2021/08/17 08:16:13;;;;;;;10.35;5.35;;;;;;;35.17;30.52;98600.87;1870654;76;22062;-62
2021/08/17 08:18:48;;;;;;;13.68;6.87;;;;;;;35.27;30.49;98581.20;1854824;76;27894;-66
2021/08/17 08:21:23;;;;;;;10.43;5.58;;;;;;;35.75;29.52;98587.62;1870606;76;22046;-64
2021/08/17 08:24:00;;;;;;;13.03;5.90;;;;;;;36.07;29.20;98593.81;1870789;76;22111;-67
2021/08/17 08:26:34;;;;;;;9.85;5.65;;;;;;;36.60;28.32;98567.03;1870668;76;22457;-65
2021/08/17 08:29:27;;;;;;;10.18;6.10;;;;;;;36.58;28.68;98590.53;1870617;76;22640;-66
2021/08/17 08:32:03;;;;;;;13.00;6.55;;;;;;;36.68;28.42;98573.80;1870656;76;22050;-62
2021/08/17 08:34:59;;;;;;;11.15;6.20;;;;;;;36.54;28.50;98586.44;1889858;76;22062;-64
2021/08/17 08:37:34;;;;;;;15.43;6.60;;;;;;;36.59;28.48;98609.20;1870716;76;22079;-63
2021/08/17 08:40:29;;;;;;;13.10;6.62;;;;;;;36.83;28.35;98601.78;1889891;76;22461;-70
2021/08/17 08:43:04;;;;;;;15.88;6.65;;;;;;;37.28;27.65;98589.91;1854705;76;28030;-65
2021/08/17 08:45:39;;;;;;;12.20;6.25;;;;;;;37.48;27.33;98599.05;1889902;76;22135;-60
2021/08/17 08:48:16;;;;;;;10.55;6.50;;;;;;;37.05;27.93;98588.83;1870627;76;22216;-69
2021/08/17 08:50:51;;;;;;;13.58;6.40;;;;;;;36.79;28.00;98578.05;1889970;76;22148;-65
2021/08/17 08:53:26;;;;;;;11.12;6.37;;;;;;;36.19;28.44;98575.62;1854848;76;27906;-63
2021/08/17 08:56:01;;;;;;;12.40;6.03;;;;;;;35.51;29.82;98582.80;1889898;76;22136;-60
2021/08/17 08:58:38;;;;;;;10.58;6.80;;;;;;;35.70;29.63;98581.00;1870359;76;22509;-67
2021/08/17 09:01:18;;;;;;;16.15;6.45;;;;;;;35.81;29.78;98564.69;1854869;76;27902;-66
2021/08/17 09:04:19;;;;;;;12.55;5.72;;;;;;;36.19;29.43;98588.22;1889982;76;22085;-63
2021/08/17 09:07:10;;;;;;;8.85;5.80;;;;;;;35.10;30.74;98598.93;1870746;76;22469;-65
2021/08/17 09:09:50;;;;;;;13.45;6.10;;;;;;;34.38;32.09;98582.95;1870636;76;22047;-66
2021/08/17 09:12:55;;;;;;;15.50;6.28;;;;;;;34.10;32.90;98581.50;1870605;76;22078;-66
2021/08/17 09:15:47;;;;;;;8.98;5.87;;;;;;;33.84;33.50;98584.72;1870434;76;22465;-63
2021/08/17 09:18:25;;;;;;;11.10;5.50;;;;;;;33.26;34.15;98578.73;1870685;76;22054;-69
2021/08/17 09:21:05;;;;;;;12.53;5.58;;;;;;;33.11;34.48;98557.87;1870590;76;22047;-61
2021/08/17 09:23:40;;;;;;;13.78;6.15;;;;;;;33.31;33.72;98560.95;1870734;76;22469;-63
2021/08/17 09:26:29;;;;;;;12.98;6.42;;;;;;;33.44;33.08;98564.70;1889960;76;22248;-63
2021/08/17 09:29:10;;;;;;;12.13;5.80;;;;;;;33.29;33.62;98556.22;1869776;76;22051;-65
2021/08/17 09:32:19;;;;;;;14.28;6.45;;;;;;;32.81;33.41;98555.04;1870482;76;22062;-70
2021/08/17 09:35:09;;;;;;;16.70;6.28;;;;;;;32.52;34.00;98562.92;1889935;76;22256;-62
2021/08/17 09:37:44;;;;;;;14.90;6.40;;;;;;;32.44;34.48;98554.70;1854820;76;27886;-63
2021/08/17 09:40:44;;;;;;;15.25;6.80;;;;;;;32.29;34.32;98572.00;1869745;76;22077;-62
2021/08/17 09:43:26;;;;;;;12.45;5.95;;;;;;;32.29;34.47;98582.69;1870419;76;22113;-61
2021/08/17 09:46:09;;;;;;;13.03;6.22;;;;;;;32.31;34.74;98556.20;1870518;76;22051;-66
2021/08/17 09:49:27;;;;;;;17.20;7.03;;;;;;;32.23;34.73;98552.86;1870654;76;22051;-64
2021/08/17 09:52:16;;;;;;;19.65;7.08;;;;;;;32.16;34.73;98579.75;1870374;76;22058;-59
2021/08/17 09:54:51;;;;;;;13.32;6.47;;;;;;;32.12;35.13;98554.27;1870549;76;22043;-65
2021/08/17 09:57:30;;;;;;;15.30;6.65;;;;;;;32.14;35.33;98555.48;1889954;76;22500;-66
2021/08/17 10:00:16;;;;;;;30.00;7.42;;;;;;;32.17;35.22;98576.09;1869765;76;22593;-64
2021/08/17 10:03:10;;;;;;;13.03;6.70;;;;;;;32.18;35.44;98567.58;1890002;76;22227;-69
2021/08/17 10:06:04;;;;;;;14.70;6.05;;;;;;;32.09;35.76;98582.56;1870616;76;22083;-65
2021/08/17 10:08:45;;;;;;;12.73;7.33;;;;;;;31.91;35.96;98553.39;1869781;76;22217;-63
2021/08/17 10:11:41;;;;;;;11.50;6.33;;;;;;;31.93;36.07;98570.09;1870599;76;22062;-66
2021/08/17 10:14:35;;;;;;;16.87;7.20;;;;;;;31.91;36.30;98577.41;1854794;76;28175;-62
2021/08/17 10:17:10;;;;;;;9.00;6.22;;;;;;;32.02;36.33;98560.02;1870675;76;20208;-59
2021/08/17 10:19:45;;;;;;;13.15;7.05;;;;;;;32.23;36.09;98577.39;1870645;76;22124;-59
2021/08/17 10:22:41;;;;;;;13.25;6.97;;;;;;;32.28;35.32;98567.66;1854672;76;27929;-64
2021/08/17 10:25:17;;;;;;;16.70;6.60;;;;;;;32.28;35.53;98574.33;1870648;76;22212;-63
2021/08/17 10:27:52;;;;;;;13.72;6.67;;;;;;;32.33;34.79;98568.11;1870637;76;22212;-62
2021/08/17 10:30:29;;;;;;;15.28;6.47;;;;;;;32.38;34.86;98560.55;1854627;76;27898;-63
2021/08/17 10:33:49;;;;;;;13.20;6.75;;;;;;;32.44;34.60;98568.05;1873803;76;27937;-63
2021/08/17 10:36:41;;;;;;;10.38;5.75;;;;;;;32.46;34.46;98564.73;1870717;76;22054;-61
2021/08/17 10:39:24;;;;;;;12.78;6.40;;;;;;;32.49;34.60;98563.66;1875545;76;22261;-61
2021/08/17 10:42:25;;;;;;;14.70;6.42;;;;;;;32.59;34.59;98569.44;1889875;76;22247;-65
2021/08/17 10:45:27;;;;;;;14.90;6.40;;;;;;;32.74;34.63;98563.73;1889868;76;22086;-64
2021/08/17 10:48:49;;;;;;;17.92;6.62;;;;;;;32.77;34.55;98554.09;1854866;76;29849;-64
2021/08/17 10:51:32;;;;;;;10.35;5.50;;;;;;;32.59;34.86;98560.55;1870598;76;22457;-65
2021/08/17 10:54:28;;;;;;;10.38;6.03;;;;;;;32.60;34.29;98571.13;1870416;76;22062;-65
2021/08/17 10:57:19;;;;;;;11.30;6.20;;;;;;;32.67;34.17;98551.88;1854839;76;28311;-65
2021/08/17 11:00:55;;;;;;;15.45;5.45;;;;;;;32.87;33.74;98561.66;1873636;75;22189;-67
2021/08/17 11:03:41;;;;;;;11.60;5.50;;;;;;;33.01;33.62;98562.64;1854783;76;28334;-66
2021/08/17 11:06:53;;;;;;;14.30;5.30;;;;;;;33.20;33.21;98547.67;1854582;76;27964;-65
2021/08/17 11:09:38;;;;;;;12.58;5.60;;;;;;;33.27;32.70;98532.27;1870634;76;22043;-64
2021/08/17 11:12:38;;;;;;;12.55;4.87;;;;;;;33.15;32.87;98553.92;1871450;75;22323;-61
2021/08/17 11:15:28;;;;;;;14.28;5.03;;;;;;;32.92;33.41;98559.44;1869812;76;22650;-67
2021/08/17 11:18:03;;;;;;;8.83;4.92;;;;;;;32.80;33.49;98513.77;1874047;76;28269;-61
2021/08/17 11:20:58;;;;;;;11.50;4.75;;;;;;;32.83;33.19;98549.08;1870658;76;22058;-64
2021/08/17 11:23:33;;;;;;;11.28;4.72;;;;;;;32.90;33.32;98544.52;1870507;76;22165;-70
2021/08/17 11:26:09;;;;;;;11.55;5.28;;;;;;;33.02;33.01;98522.08;1873976;76;27933;-65
2021/08/17 11:28:47;;;;;;;11.88;5.75;;;;;;;33.12;33.08;98530.13;1889931;76;22041;-60
2021/08/17 11:31:23;;;;;;;11.03;4.95;;;;;;;33.10;32.78;98532.93;1889889;76;22235;-64
2021/08/17 11:34:35;;;;;;;8.70;4.03;;;;;;;33.16;32.86;98538.25;1835277;77;22654;-66
2021/08/17 11:37:36;;;;;;;11.65;5.12;;;;;;;32.90;32.82;98513.31;1865978;75;22268;-64
2021/08/17 11:40:17;;;;;;;13.32;4.58;;;;;;;32.64;33.43;98511.11;1870681;76;22213;-62
2021/08/17 11:43:14;;;;;;;11.68;4.50;;;;;;;32.63;33.20;98544.13;1870627;76;22157;-65
2021/08/17 11:46:14;;;;;;;9.13;4.70;;;;;;;32.59;33.58;98523.15;1870481;76;22477;-67
2021/08/17 11:49:22;;;;;;;12.37;4.95;;;;;;;32.59;33.58;98515.13;1870377;76;22062;-63
2021/08/17 11:52:25;;;;;;;8.50;4.45;;;;;;;32.56;33.28;98536.28;1870436;76;20097;-63
2021/08/17 11:55:16;;;;;;;9.70;5.15;;;;;;;32.63;33.03;98509.39;1870501;76;22091;-62
2021/08/17 11:58:11;;;;;;;13.40;4.67;;;;;;;32.67;33.24;98495.76;1889896;76;22301;-68
2021/08/17 12:01:07;;;;;;;13.72;4.80;;;;;;;32.82;32.83;98485.05;1870686;76;22043;-67
2021/08/17 12:03:42;;;;;;;8.78;4.30;;;;;;;32.85;32.50;98516.88;1889976;76;22264;-64
2021/08/17 12:06:36;;;;;;;15.72;4.80;;;;;;;32.73;32.55;98512.11;1870591;76;22652;-63
2021/08/17 12:09:20;;;;;;;13.80;4.85;;;;;;;32.63;32.71;98498.70;1870650;76;22615;-66
2021/08/17 12:12:01;;;;;;;13.58;5.15;;;;;;;32.64;33.06;98488.39;1889913;76;22247;-61
2021/08/17 12:15:12;;;;;;;14.18;5.08;;;;;;;32.75;33.08;98501.30;1890018;76;22050;-66
2021/08/17 12:18:10;;;;;;;17.98;5.05;;;;;;;32.94;32.70;98504.02;1890003;76;22049;-67
2021/08/17 12:21:00;;;;;;;13.83;4.85;;;;;;;33.06;32.56;98513.66;1889938;76;22167;-68
2021/08/17 12:23:39;;;;;;;10.15;4.55;;;;;;;33.18;32.40;98518.88;1889952;76;22078;-63
2021/08/17 12:26:28;;;;;;;11.08;4.37;;;;;;;33.14;31.98;98528.17;1870707;76;22228;-61
2021/08/17 12:29:25;;;;;;;9.13;4.15;;;;;;;32.97;31.93;98497.05;1870607;76;22141;-59
2021/08/17 12:32:28;;;;;;;14.03;5.62;;;;;;;32.80;32.79;98485.20;1870529;76;22233;-63